Accueil
METAR-TAF:

METAR-TAF

Aéroports :

Aérodrome de Maré - La Roche

Maré, Nouvelle-Calédonie

latitude: 21-28-53S, longitude: 168-02-15E, altitude: 42 m

METAR: absent

Heure: 14:54 (03:54 UTC)

Prévision

Le bulletin a été fait il y a 10 heures et 54 minutes, à 17:00 UTC
Prévision valable du 26 à 18 UTC au 27 à 18 UTC
Vent 8 kt de est
Visibilité 10 km ou plus
Nuages épars à une hauteur de 2000 ft
Nuages fragmentés à une hauteur de 4000 ft
Temporairement
du 26 à 21 UTC au 27 à 06 UTC
Visibilité: 4000 m
Nuages fragmentés à une hauteur de 1400 ft
Quelques nuages à une hauteur de 2000 ft, Cumulonimbus.
averses de pluie

TAF: NWWR 261700Z 2618/2718 10008KT 9999 SCT020 BKN040 TEMPO 2621/2706 4000 SHRA BKN014 FEW020CB

Observations et prévisions météorologiques de plus de 4000 aéroports (messages METAR et TAF).

Les stations disponibles sont représentées par des disques jaunes et rouges sur la carte.

Passer la souris dessus pour voir le nom de la station.

Cliquer dessus pour voir les observations et prévisions météorologiques.

Pour changer de carte: cliquez sur les boutons verts avec une croix noire pour zoomer, sur le bouton vert avec un tiret pour effectuer un zoom arrière, ou sur les flèches vertes pour les cartes adjacentes.


METAR-TAF: